Tuesday, July 17, 2018, 1:31 AM EDT
Back to Local

KW22, Buckhannon, Upshur County Regional Airport

Location: Buckhannon, WV, United States Lat: 39
Local Time: 1:31 AM EDT ( 5:31 GMT) Lon: -80.267
Time Zone: US/Eastern Elev: 1633 ft

Show me the last for .
Show Decoded

2018-07-17 01:15 METAR KW22 170515Z AUTO 00000KT 10SM BKN037 BKN044 OVC050 21/21 A2997 RMK AO2 =
2018-07-17 00:50 METAR KW22 170450Z AUTO 00000KT 10SM FEW032 BKN046 21/21 A2997 RMK AO2 =
2018-07-17 00:35 METAR KW22 170435Z AUTO 00000KT 10SM BKN049 21/21 A2997 RMK AO2 =
2018-07-17 00:15 METAR KW22 170415Z AUTO 19003KT 10SM FEW034 SCT050 SCT070 22/22 A2998 RMK AO2 =
2018-07-16 23:55 METAR KW22 170355Z AUTO 00000KT 10SM SCT060 BKN070 22/21 A2999 RMK AO2 =
2018-07-16 23:35 METAR KW22 170335Z AUTO 00000KT 10SM BKN060 22/22 A2999 RMK AO2 =
2018-07-16 23:15 METAR KW22 170315Z AUTO 00000KT 10SM FEW045 FEW075 22/22 A2999 RMK AO2 =
2018-07-16 22:55 METAR KW22 170255Z AUTO 00000KT 10SM FEW075 22/22 A2999 RMK AO2 =
2018-07-16 22:35 METAR KW22 170235Z AUTO 18003KT 10SM FEW080 22/22 A2999 RMK AO2 =
2018-07-16 22:15 METAR KW22 170215Z AUTO 00000KT 10SM CLR 22/22 A3000 RMK AO2 =
2018-07-16 21:55 METAR KW22 170155Z AUTO 00000KT 10SM CLR 23/22 A2999 RMK AO2 =
2018-07-16 21:35 METAR KW22 170135Z AUTO 00000KT 10SM CLR 24/21 A2998 RMK AO2 =
2018-07-16 21:15 METAR KW22 170115Z AUTO 14003KT 10SM CLR 23/21 A2998 RMK AO2 =
2018-07-16 20:55 METAR KW22 170055Z AUTO 00000KT 10SM CLR 24/21 A2999 RMK AO2 =
2018-07-16 20:35 METAR KW22 170035Z AUTO 00000KT 10SM CLR 24/21 A2999 RMK AO2 =
2018-07-16 20:15 METAR KW22 170015Z AUTO 00000KT 10SM CLR 25/21 A2999 RMK AO2 =
2018-07-16 19:55 METAR KW22 162355Z AUTO 00000KT 10SM CLR 24/21 A2998 RMK AO2 =
2018-07-16 19:35 METAR KW22 162335Z AUTO 00000KT 10SM CLR 24/21 A2998 RMK AO2 =
2018-07-16 19:15 METAR KW22 162315Z AUTO 21006KT 10SM CLR 25/21 A2998 RMK AO2 =
2018-07-16 18:55 METAR KW22 162255Z AUTO 20005KT 10SM CLR 24/20 A2999 RMK AO2 =
2018-07-16 18:30 METAR KW22 162230Z AUTO 21006KT 10SM CLR 24/20 A2999 RMK AO2 =
2018-07-16 18:15 METAR KW22 162215Z AUTO 20007KT 10SM CLR 24/20 A2999 RMK AO2 =
2018-07-16 17:55 METAR KW22 162155Z AUTO 23005KT 10SM CLR 24/20 A3000 RMK AO2 =
2018-07-16 17:35 METAR KW22 162135Z AUTO 23007KT 10SM CLR 24/20 A3000 RMK AO2 =
2018-07-16 17:15 METAR KW22 162115Z AUTO 21006KT 10SM FEW110 24/19 A3000 RMK AO2 =
2018-07-16 16:35 METAR KW22 162035Z AUTO 24011KT 10SM 27/19 A3001 RMK AO2 =
2018-07-16 16:15 METAR KW22 162015Z AUTO 19010G15KT 10SM 27/19 A3001 RMK AO2 =
2018-07-16 15:55 METAR KW22 161955Z AUTO 180KT 10SM SCT041 SCT050 31/20 A3000 RMK AO2 =
2018-07-16 15:35 METAR KW22 161935Z AUTO 20007G12KT 10SM SCT041 31/20 A3001 RMK AO2 =
2018-07-16 15:15 METAR KW22 161915Z AUTO 24007KT 10SM FEW041 32/20 A3001 RMK AO2 =
2018-07-16 14:55 METAR KW22 161855Z AUTO 23005KT 10SM FEW042 FEW050 31/20 A3001 RMK AO2 =
2018-07-16 14:35 METAR KW22 161835Z AUTO VRB04KT 10SM FEW042 31/21 A3002 RMK AO2 =
2018-07-16 14:15 METAR KW22 161815Z AUTO 24006KT 10SM CLR 30/20 A3002 RMK AO2 =
2018-07-16 13:55 METAR KW22 161755Z AUTO 28004KT 10SM FEW048 30/21 A3003 RMK AO2 =
2018-07-16 13:35 METAR KW22 161735Z AUTO 00000KT 10SM FEW032 30/21 A3003 RMK AO2 =
2018-07-16 13:15 METAR KW22 161715Z AUTO VRB03KT 10SM SCT032 SCT043 30/21 A3004 RMK AO2 =
2018-07-16 12:55 METAR KW22 161655Z AUTO VRB05KT 10SM FEW030 FEW043 30/21 A3005 RMK AO2 =
2018-07-16 12:35 METAR KW22 161635Z AUTO VRB04KT 10SM FEW026 FEW031 SCT036 29/21 A3006 RMK AO2 =
2018-07-16 12:15 METAR KW22 161615Z AUTO 21006KT 8SM FEW027 SCT037 BKN043 29/22 A3007 RMK AO2 =
2018-07-16 11:55 METAR KW22 161555Z AUTO 23004KT 8SM BKN026 BKN035 28/21 A3007 RMK AO2 =
2018-07-16 11:35 METAR KW22 161535Z AUTO 25005KT 10SM BKN026 BKN032 28/21 A3007 RMK AO2 =
2018-07-16 11:15 METAR KW22 161515Z AUTO 00000KT 10SM BKN025 BKN031 27/21 A3007 RMK AO2 =
2018-07-16 10:55 METAR KW22 161455Z AUTO VRB04KT 10SM SCT025 27/21 A3008 RMK AO2 =
2018-07-16 10:35 METAR KW22 161435Z AUTO 00000KT 10SM FEW023 27/21 A3007 RMK AO2 =
2018-07-16 10:15 METAR KW22 161415Z AUTO 21004KT 10SM CLR 27/20 A3008 RMK AO2 =
2018-07-16 09:55 METAR KW22 161355Z AUTO 17004KT 10SM CLR 26/21 A3008 RMK AO2 =
2018-07-16 09:35 METAR KW22 161335Z AUTO 00000KT 10SM CLR 26/20 A3008 RMK AO2 =
2018-07-16 09:15 METAR KW22 161315Z AUTO 00000KT 10SM CLR 25/20 A3008 RMK AO2 =
2018-07-16 08:55 METAR KW22 161255Z AUTO 00000KT 10SM CLR 24/19 A3007 RMK AO2 =
2018-07-16 08:35 METAR KW22 161235Z AUTO 00000KT 10SM CLR 24/19 A3007 RMK AO2 =
2018-07-16 08:15 METAR KW22 161215Z AUTO 00000KT 10SM FEW030 22/19 A3007 RMK AO2 =
2018-07-16 07:55 METAR KW22 161155Z AUTO 00000KT 10SM BKN031 BKN036 21/19 A3007 RMK AO2 =
2018-07-16 07:35 METAR KW22 161135Z AUTO 00000KT 10SM BKN034 20/20 A3007 RMK AO2 =
2018-07-16 07:15 METAR KW22 161115Z AUTO 00000KT 10SM SCT035 20/19 A3007 RMK AO2 =
2018-07-16 06:55 METAR KW22 161055Z AUTO 00000KT 10SM CLR 19/19 A3007 RMK AO2 =
2018-07-16 06:35 METAR KW22 161035Z AUTO 09003KT 10SM CLR 19/19 A3007 RMK AO2 =
2018-07-16 06:15 METAR KW22 161015Z AUTO 09003KT 10SM CLR 19/19 A3007 RMK AO2 =
2018-07-16 05:55 METAR KW22 160955Z AUTO 00000KT 10SM FEW026 SCT032 SCT039 18/18 A3006 RMK AO2 =
2018-07-16 05:35 METAR KW22 160935Z AUTO 00000KT 10SM SCT025 BKN030 OVC042 18/18 A3006 RMK AO2 =
2018-07-16 05:15 METAR KW22 160915Z AUTO 00000KT 10SM BKN026 OVC031 18/18 A3006 RMK AO2 =
2018-07-16 04:55 METAR KW22 160855Z AUTO 00000KT 10SM BKN027 BKN031 19/19 A3005 RMK AO2 =
2018-07-16 04:35 METAR KW22 160835Z AUTO 00000KT 10SM FEW029 19/19 A3006 RMK AO2 =
2018-07-16 04:15 METAR KW22 160815Z AUTO 00000KT 10SM FEW028 FEW033 19/19 A3006 RMK AO2 =
2018-07-16 03:55 METAR KW22 160755Z AUTO 00000KT 10SM SCT027 BKN031 19/19 A3006 RMK AO2 =
2018-07-16 03:35 METAR KW22 160735Z AUTO 00000KT 10SM BKN026 BKN033 BKN042 19/19 A3006 RMK AO2 =
2018-07-16 03:15 METAR KW22 160715Z AUTO 14003KT 10SM SCT027 SCT043 19/19 A3007 RMK AO2 =
2018-07-16 02:55 METAR KW22 160655Z AUTO 00000KT 10SM FEW025 FEW033 SCT042 19/19 A3007 RMK AO2 =
2018-07-16 02:35 METAR KW22 160635Z AUTO 10003KT 10SM FEW025 FEW034 SCT040 19/19 A3008 RMK AO2 =
2018-07-16 02:15 METAR KW22 160615Z AUTO 00000KT 10SM FEW026 FEW040 19/19 A3008 RMK AO2 =
2018-07-16 01:50 METAR KW22 160550Z AUTO 00000KT 10SM CLR 19/19 A3008 RMK AO2 =
2018-07-16 01:35 METAR KW22 160535Z AUTO 18003KT 10SM CLR 19/19 A3008 RMK AO2 =

Support USWX by starting your Amazon purchase here.